createdAt,value
2019-05-30T00:00:19.616Z,1014.92
2019-05-30T00:01:19.632Z,1014.89
2019-05-30T00:02:19.637Z,1014.90
2019-05-30T00:03:19.667Z,1014.86
2019-05-30T00:04:19.653Z,1014.87
2019-05-30T00:05:19.664Z,1014.85
2019-05-30T00:06:19.671Z,1014.83
2019-05-30T00:07:19.679Z,1014.82
2019-05-30T00:08:19.692Z,1014.83
2019-05-30T00:09:19.696Z,1014.85
2019-05-30T00:10:19.703Z,1014.84
2019-05-30T00:11:19.709Z,1014.89
2019-05-30T00:12:19.720Z,1014.86
2019-05-30T00:13:19.729Z,1014.88
2019-05-30T00:14:19.725Z,1014.86
2019-05-30T00:15:19.738Z,1014.86
2019-05-30T00:16:19.751Z,1014.85
2019-05-30T00:17:19.757Z,1014.85
2019-05-30T00:18:19.761Z,1014.83
2019-05-30T00:19:19.775Z,1014.87
2019-05-30T00:20:19.783Z,1014.87
2019-05-30T00:21:19.791Z,1014.90
2019-05-30T00:22:19.792Z,1014.92
2019-05-30T00:24:19.810Z,1014.88
2019-05-30T00:25:19.827Z,1014.90
2019-05-30T00:26:19.830Z,1014.88
2019-05-30T00:27:19.841Z,1014.85
2019-05-30T00:28:19.840Z,1014.84
2019-05-30T00:29:19.850Z,1014.80
2019-05-30T00:30:24.327Z,1014.83
2019-05-30T00:31:19.863Z,1014.86
2019-05-30T00:32:19.876Z,1014.84
2019-05-30T00:33:19.876Z,1014.85
2019-05-30T00:34:19.888Z,1014.84
2019-05-30T00:35:19.895Z,1014.87
2019-05-30T00:36:19.898Z,1014.84
2019-05-30T00:37:19.913Z,1014.82
2019-05-30T00:38:19.914Z,1014.87
2019-05-30T00:39:19.940Z,1014.84
2019-05-30T00:40:19.933Z,1014.84
2019-05-30T00:41:19.944Z,1014.84
2019-05-30T00:42:19.949Z,1014.80
2019-05-30T00:43:19.950Z,1014.89
2019-05-30T00:44:19.962Z,1014.80
2019-05-30T00:45:21.433Z,1014.84
2019-05-30T00:46:19.977Z,1014.83
2019-05-30T00:47:19.987Z,1014.82
2019-05-30T00:48:19.993Z,1014.81
2019-05-30T00:49:20.003Z,1014.82
2019-05-30T00:50:20.001Z,1014.79
2019-05-30T00:51:20.016Z,1014.81
2019-05-30T00:53:20.033Z,1014.83
2019-05-30T00:54:20.046Z,1014.82
2019-05-30T00:56:20.052Z,1014.80
2019-05-30T00:57:20.060Z,1014.77
2019-05-30T00:58:20.071Z,1014.80
2019-05-30T00:59:20.087Z,1014.80
2019-05-30T01:00:20.095Z,1014.80
2019-05-30T01:01:20.100Z,1014.77
2019-05-30T01:02:20.102Z,1014.79
2019-05-30T01:03:20.113Z,1014.80
2019-05-30T01:04:20.120Z,1014.75
2019-05-30T01:05:20.131Z,1014.78
2019-05-30T01:06:20.132Z,1014.79
2019-05-30T01:07:20.138Z,1014.79
2019-05-30T01:08:20.147Z,1014.80
2019-05-30T01:09:20.152Z,1014.81
2019-05-30T01:10:20.183Z,1014.81
2019-05-30T01:11:20.181Z,1014.87
2019-05-30T01:12:20.177Z,1014.82
2019-05-30T01:13:20.186Z,1014.82
2019-05-30T01:14:20.197Z,1014.81
2019-05-30T01:15:20.214Z,1014.79
2019-05-30T01:16:20.218Z,1014.77
2019-05-30T01:17:20.222Z,1014.79
2019-05-30T01:18:20.222Z,1014.77
2019-05-30T01:19:20.234Z,1014.75
2019-05-30T01:20:20.245Z,1014.75
2019-05-30T01:21:20.254Z,1014.77
2019-05-30T01:22:20.253Z,1014.73
2019-05-30T01:23:20.274Z,1014.73
2019-05-30T01:24:20.272Z,1014.77
2019-05-30T01:25:20.280Z,1014.71
2019-05-30T01:26:20.288Z,1014.71
2019-05-30T01:27:20.302Z,1014.70
2019-05-30T01:28:20.302Z,1014.66
2019-05-30T01:29:20.315Z,1014.68
2019-05-30T01:30:20.318Z,1014.70
2019-05-30T01:31:20.327Z,1014.72
2019-05-30T01:32:20.336Z,1014.71
2019-05-30T01:33:20.359Z,1014.68
2019-05-30T01:34:20.349Z,1014.67
2019-05-30T01:35:20.352Z,1014.70
2019-05-30T01:36:20.371Z,1014.69
2019-05-30T01:37:20.379Z,1014.70
2019-05-30T01:38:20.380Z,1014.69
2019-05-30T01:39:20.387Z,1014.66
2019-05-30T01:40:20.443Z,1014.68
2019-05-30T01:41:20.418Z,1014.72
2019-05-30T01:42:20.410Z,1014.74
2019-05-30T01:43:20.418Z,1014.75
2019-05-30T01:44:20.428Z,1014.71
2019-05-30T01:45:20.441Z,1014.78
2019-05-30T01:46:20.446Z,1014.71
2019-05-30T01:47:20.455Z,1014.60
2019-05-30T01:48:20.464Z,1014.68
2019-05-30T01:49:20.471Z,1014.67
2019-05-30T01:50:20.477Z,1014.65
2019-05-30T01:51:20.486Z,1014.64
2019-05-30T01:52:20.491Z,1014.67
2019-05-30T01:53:20.503Z,1014.67
2019-05-30T01:54:20.510Z,1014.63
2019-05-30T01:55:20.511Z,1014.65
2019-05-30T01:56:20.523Z,1014.64
2019-05-30T01:57:20.531Z,1014.63
2019-05-30T01:58:20.539Z,1014.60
2019-05-30T01:59:20.540Z,1014.65
2019-05-30T02:00:21.719Z,1014.68
2019-05-30T02:01:24.960Z,1014.70
2019-05-30T02:02:20.566Z,1014.68
2019-05-30T02:03:20.574Z,1014.67
2019-05-30T02:04:20.582Z,1014.61
2019-05-30T02:05:20.596Z,1014.65
2019-05-30T02:06:20.597Z,1014.65
2019-05-30T02:07:20.611Z,1014.63
2019-05-30T02:08:20.615Z,1014.63
2019-05-30T02:09:20.628Z,1014.56
2019-05-30T02:10:20.632Z,1014.58
2019-05-30T02:11:20.646Z,1014.61
2019-05-30T02:12:20.642Z,1014.61
2019-05-30T02:13:20.655Z,1014.56
2019-05-30T02:14:20.656Z,1014.60
2019-05-30T02:15:20.663Z,1014.55
2019-05-30T02:16:20.674Z,1014.59
2019-05-30T02:17:20.677Z,1014.55
2019-05-30T02:18:20.692Z,1014.58
2019-05-30T02:19:20.703Z,1014.55
2019-05-30T02:20:20.707Z,1014.55
2019-05-30T02:21:20.712Z,1014.58
2019-05-30T02:22:20.732Z,1014.55
2019-05-30T02:23:20.729Z,1014.60
2019-05-30T02:24:20.738Z,1014.56
2019-05-30T02:25:20.746Z,1014.51
2019-05-30T02:26:20.747Z,1014.47
2019-05-30T02:27:20.760Z,1014.50
2019-05-30T02:28:20.767Z,1014.50
2019-05-30T02:29:20.787Z,1014.45
2019-05-30T02:30:20.788Z,1014.47
2019-05-30T02:33:20.812Z,1014.46
2019-05-30T02:35:20.818Z,1014.54
2019-05-30T02:36:20.829Z,1014.51
2019-05-30T02:37:20.834Z,1014.47
2019-05-30T02:38:20.840Z,1014.53
2019-05-30T02:39:20.850Z,1014.50
2019-05-30T02:40:20.856Z,1014.45
2019-05-30T02:41:20.865Z,1014.50
2019-05-30T02:42:20.871Z,1014.52
2019-05-30T02:43:20.878Z,1014.54
2019-05-30T02:44:20.889Z,1014.54
2019-05-30T02:45:20.892Z,1014.52
2019-05-30T02:46:20.903Z,1014.56
2019-05-30T02:47:22.459Z,1014.56
2019-05-30T02:48:20.915Z,1014.57
2019-05-30T02:49:20.932Z,1014.56
2019-05-30T02:50:20.932Z,1014.58
2019-05-30T02:51:20.941Z,1014.55
2019-05-30T02:52:20.954Z,1014.58
2019-05-30T02:53:20.959Z,1014.57
2019-05-30T02:54:20.967Z,1014.59
2019-05-30T02:55:20.974Z,1014.59
2019-05-30T02:57:20.986Z,1014.56
2019-05-30T02:58:20.992Z,1014.59
2019-05-30T02:59:21.002Z,1014.64
2019-05-30T03:01:21.015Z,1014.62
2019-05-30T03:02:21.042Z,1014.61
2019-05-30T03:03:21.029Z,1014.63
2019-05-30T03:04:21.039Z,1014.62
2019-05-30T03:05:21.048Z,1014.63
2019-05-30T03:06:21.057Z,1014.59
2019-05-30T03:07:21.064Z,1014.59
2019-05-30T03:08:21.072Z,1014.63
2019-05-30T03:09:21.072Z,1014.56
2019-05-30T03:10:21.085Z,1014.60
2019-05-30T03:11:21.086Z,1014.61
2019-05-30T03:12:21.102Z,1014.61
2019-05-30T03:13:21.103Z,1014.58
2019-05-30T03:14:21.111Z,1014.58
2019-05-30T03:15:21.121Z,1014.61
2019-05-30T03:16:21.142Z,1014.64
2019-05-30T03:17:21.140Z,1014.60
2019-05-30T03:18:21.142Z,1014.55
2019-05-30T03:19:21.150Z,1014.59
2019-05-30T03:20:23.416Z,1014.60
2019-05-30T03:21:21.165Z,1014.60
2019-05-30T03:22:21.172Z,1014.61
2019-05-30T03:23:21.180Z,1014.61
2019-05-30T03:24:21.193Z,1014.60
2019-05-30T03:25:21.199Z,1014.62
2019-05-30T03:26:21.207Z,1014.64
2019-05-30T03:27:21.212Z,1014.61
2019-05-30T03:28:21.219Z,1014.65
2019-05-30T03:29:21.226Z,1014.65
2019-05-30T03:30:27.326Z,1014.60
2019-05-30T03:31:28.771Z,1014.59
2019-05-30T03:33:37.411Z,1014.61
2019-05-30T03:34:27.537Z,1014.64
2019-05-30T03:35:28.737Z,1014.62
2019-05-30T03:36:29.681Z,1014.58
2019-05-30T03:37:28.520Z,1014.60
2019-05-30T03:38:21.295Z,1014.63
2019-05-30T03:39:21.314Z,1014.60
2019-05-30T03:40:23.477Z,1014.64
2019-05-30T03:41:21.313Z,1014.64
2019-05-30T03:42:21.345Z,1014.63
2019-05-30T03:43:21.344Z,1014.60
2019-05-30T03:44:21.346Z,1014.61
2019-05-30T03:45:21.352Z,1014.71
2019-05-30T03:46:21.368Z,1014.66
2019-05-30T03:47:21.372Z,1014.69
2019-05-30T03:48:21.379Z,1014.64
2019-05-30T03:49:21.383Z,1014.66
2019-05-30T03:50:21.393Z,1014.65
2019-05-30T03:51:21.406Z,1014.64
2019-05-30T03:52:21.407Z,1014.67
2019-05-30T03:53:21.414Z,1014.65
2019-05-30T03:54:21.421Z,1014.66
2019-05-30T03:55:21.431Z,1014.64
2019-05-30T03:56:21.452Z,1014.65
2019-05-30T03:57:21.442Z,1014.62
2019-05-30T03:58:21.451Z,1014.62
2019-05-30T03:59:21.466Z,1014.67
2019-05-30T04:00:21.463Z,1014.64
2019-05-30T04:01:21.491Z,1014.63
2019-05-30T04:02:21.487Z,1014.68
2019-05-30T04:03:21.487Z,1014.69
2019-05-30T04:04:21.499Z,1014.65
2019-05-30T04:05:21.541Z,1014.66
2019-05-30T04:06:21.513Z,1014.70
2019-05-30T04:07:21.526Z,1014.67
2019-05-30T04:08:21.529Z,1014.66
2019-05-30T04:09:24.733Z,1014.65
2019-05-30T04:10:21.546Z,1014.69
2019-05-30T04:11:21.552Z,1014.69
2019-05-30T04:12:21.563Z,1014.72
2019-05-30T04:13:21.570Z,1014.74
2019-05-30T04:14:21.573Z,1014.73
2019-05-30T04:15:21.582Z,1014.75
2019-05-30T04:16:21.592Z,1014.79
2019-05-30T04:17:21.603Z,1014.78
2019-05-30T04:18:21.610Z,1014.76
2019-05-30T04:19:21.611Z,1014.76
2019-05-30T04:20:23.191Z,1014.80
2019-05-30T04:21:21.869Z,1014.83
2019-05-30T04:22:21.635Z,1014.79
2019-05-30T04:23:21.646Z,1014.81
2019-05-30T04:24:21.651Z,1014.84
2019-05-30T04:25:21.660Z,1014.83
2019-05-30T04:26:21.671Z,1014.80
2019-05-30T04:27:21.676Z,1014.82
2019-05-30T04:28:21.687Z,1014.84
2019-05-30T04:29:21.695Z,1014.83
2019-05-30T04:30:21.717Z,1014.84
2019-05-30T04:31:21.708Z,1014.86
2019-05-30T04:32:21.715Z,1014.85
2019-05-30T04:33:32.705Z,1014.82
2019-05-30T04:34:21.741Z,1014.85
2019-05-30T04:35:21.742Z,1014.81
2019-05-30T04:36:21.749Z,1014.85
2019-05-30T04:37:21.948Z,1014.87
2019-05-30T04:38:21.772Z,1014.82
2019-05-30T04:39:21.828Z,1014.90
2019-05-30T04:40:21.913Z,1014.80
2019-05-30T04:41:21.973Z,1014.83
2019-05-30T04:42:21.790Z,1014.78
2019-05-30T04:43:21.816Z,1014.84
2019-05-30T04:44:21.818Z,1014.82
2019-05-30T04:45:27.077Z,1014.84
2019-05-30T04:46:22.217Z,1014.79
2019-05-30T04:47:21.839Z,1014.79
2019-05-30T04:48:21.840Z,1014.83
2019-05-30T04:49:21.909Z,1014.81
2019-05-30T04:50:21.862Z,1014.82
2019-05-30T04:51:21.989Z,1014.81
2019-05-30T04:52:24.609Z,1014.82
2019-05-30T04:53:21.883Z,1014.79
2019-05-30T04:54:21.889Z,1014.82
2019-05-30T04:55:23.152Z,1014.86
2019-05-30T04:56:22.242Z,1014.89
2019-05-30T04:57:26.899Z,1014.89
2019-05-30T04:58:24.350Z,1014.90
2019-05-30T04:59:22.264Z,1014.90
2019-05-30T05:00:21.943Z,1014.91
2019-05-30T05:01:22.337Z,1014.87
2019-05-30T05:02:23.307Z,1014.94
2019-05-30T05:03:41.699Z,1014.95
2019-05-30T05:05:26.349Z,1015.01
2019-05-30T05:06:22.218Z,1014.97
2019-05-30T05:07:22.184Z,1014.97
2019-05-30T05:08:22.238Z,1015.00
2019-05-30T05:09:22.473Z,1014.99
2019-05-30T05:10:22.555Z,1015.05
2019-05-30T05:11:25.052Z,1015.02
2019-05-30T05:12:22.438Z,1015.02
2019-05-30T05:13:22.558Z,1015.04
2019-05-30T05:14:22.714Z,1014.97
2019-05-30T05:15:22.779Z,1014.98
2019-05-30T05:16:30.765Z,1014.97
2019-05-30T05:17:23.125Z,1014.98
2019-05-30T05:18:23.457Z,1014.95
2019-05-30T05:19:25.417Z,1014.96
2019-05-30T05:20:23.356Z,1014.96
2019-05-30T05:21:23.127Z,1014.95
2019-05-30T05:22:23.230Z,1015.05
2019-05-30T05:23:23.218Z,1014.95
2019-05-30T05:24:23.380Z,1014.94
2019-05-30T05:25:22.145Z,1014.96
2019-05-30T05:26:22.152Z,1014.98
2019-05-30T05:27:22.159Z,1014.94
2019-05-30T05:28:22.172Z,1014.95
2019-05-30T05:29:22.179Z,1014.91
2019-05-30T05:30:22.525Z,1014.95
2019-05-30T05:31:22.489Z,1015.00
2019-05-30T05:32:22.656Z,1014.98
2019-05-30T05:33:22.685Z,1014.91
2019-05-30T05:34:22.809Z,1014.96
2019-05-30T05:35:23.032Z,1015.08
2019-05-30T05:36:23.050Z,1015.02
2019-05-30T05:37:23.288Z,1014.98
2019-05-30T05:38:22.471Z,1014.97
2019-05-30T05:39:22.351Z,1014.95
2019-05-30T05:40:22.504Z,1014.90
2019-05-30T05:41:22.394Z,1014.92
2019-05-30T05:42:22.614Z,1014.91
2019-05-30T05:43:22.503Z,1014.97
2019-05-30T05:44:22.487Z,1014.91
2019-05-30T05:45:22.826Z,1014.92
2019-05-30T05:46:22.598Z,1014.93
2019-05-30T05:47:22.817Z,1014.95
2019-05-30T05:48:22.646Z,1015.00
2019-05-30T05:49:22.645Z,1015.06
2019-05-30T05:50:22.602Z,1014.98
2019-05-30T05:51:22.798Z,1015.01
2019-05-30T05:52:22.816Z,1014.95
2019-05-30T05:53:23.034Z,1015.01
2019-05-30T05:54:22.969Z,1015.07
2019-05-30T05:55:22.909Z,1015.07
2019-05-30T05:56:22.886Z,1015.04
2019-05-30T05:57:22.940Z,1015.02
2019-05-30T05:58:23.992Z,1015.10
2019-05-30T05:59:23.068Z,1015.18
2019-05-30T06:00:23.321Z,1015.09
2019-05-30T06:01:23.394Z,1015.10
2019-05-30T06:02:23.247Z,1015.13
2019-05-30T06:03:22.466Z,1015.13
2019-05-30T06:04:23.295Z,1015.15
2019-05-30T06:05:22.495Z,1015.16
2019-05-30T06:06:23.421Z,1015.21
2019-05-30T06:07:22.555Z,1015.17
2019-05-30T06:09:22.699Z,1015.11
2019-05-30T06:10:23.658Z,1015.11
2019-05-30T06:11:22.765Z,1015.16
2019-05-30T06:12:23.715Z,1015.24
2019-05-30T06:13:22.881Z,1015.19
2019-05-30T06:14:24.098Z,1015.18
2019-05-30T06:15:22.949Z,1015.16
2019-05-30T06:16:22.580Z,1015.16
2019-05-30T06:17:23.094Z,1015.23
2019-05-30T06:18:22.609Z,1015.24
2019-05-30T06:19:23.201Z,1015.19
2019-05-30T06:20:23.328Z,1015.14
2019-05-30T06:21:23.438Z,1015.17
2019-05-30T06:22:23.588Z,1015.20
2019-05-30T06:23:23.722Z,1015.23
2019-05-30T06:24:23.668Z,1015.23
2019-05-30T06:25:26.646Z,1015.21
2019-05-30T06:26:24.139Z,1015.28
2019-05-30T06:27:23.907Z,1015.23
2019-05-30T06:28:22.682Z,1015.20
2019-05-30T06:29:22.692Z,1015.20
2019-05-30T06:30:22.704Z,1015.20
2019-05-30T06:31:22.713Z,1015.13
2019-05-30T06:32:22.992Z,1015.22
2019-05-30T06:33:23.486Z,1015.27
2019-05-30T06:34:35.978Z,1015.30
2019-05-30T06:35:22.995Z,1015.30
2019-05-30T06:36:23.066Z,1015.26
2019-05-30T06:37:23.163Z,1015.27
2019-05-30T06:38:23.152Z,1015.35
2019-05-30T06:39:23.440Z,1015.33
2019-05-30T06:40:23.747Z,1015.36
2019-05-30T06:41:23.508Z,1015.36
2019-05-30T06:42:23.658Z,1015.36
2019-05-30T06:43:24.208Z,1015.37
2019-05-30T06:44:23.888Z,1015.39
2019-05-30T06:45:24.079Z,1015.40
2019-05-30T06:46:24.109Z,1015.41
2019-05-30T06:47:22.849Z,1015.34
2019-05-30T06:48:22.861Z,1015.44
2019-05-30T06:49:22.896Z,1015.41
2019-05-30T06:50:22.876Z,1015.37
2019-05-30T06:51:22.892Z,1015.40
2019-05-30T06:52:22.908Z,1015.41
2019-05-30T06:53:23.282Z,1015.36
2019-05-30T06:54:24.308Z,1015.44
2019-05-30T06:55:23.166Z,1015.44
2019-05-30T06:56:23.297Z,1015.39
2019-05-30T06:57:23.179Z,1015.37
2019-05-30T06:58:40.049Z,1015.46
2019-05-30T06:59:23.464Z,1015.45
2019-05-30T07:00:23.657Z,1015.50
2019-05-30T07:01:23.756Z,1015.51
2019-05-30T07:02:24.117Z,1015.54
2019-05-30T07:03:24.132Z,1015.62
2019-05-30T07:05:24.300Z,1015.43
2019-05-30T07:06:23.346Z,1015.55
2019-05-30T07:07:23.317Z,1015.53
2019-05-30T07:08:23.039Z,1015.56
2019-05-30T07:09:23.059Z,1015.64
2019-05-30T07:10:23.051Z,1015.67
2019-05-30T07:11:23.066Z,1015.64
2019-05-30T07:12:23.080Z,1015.69
2019-05-30T07:13:23.320Z,1015.64
2019-05-30T07:14:23.120Z,1015.78
2019-05-30T07:15:23.282Z,1015.81
2019-05-30T07:16:23.403Z,1015.86
2019-05-30T07:17:23.264Z,1015.91
2019-05-30T07:18:23.431Z,1015.80
2019-05-30T07:19:23.385Z,1015.89
2019-05-30T07:20:23.477Z,1015.83
2019-05-30T07:21:23.543Z,1015.90
2019-05-30T07:22:23.531Z,1015.90
2019-05-30T07:23:23.769Z,1015.88
2019-05-30T07:24:23.720Z,1015.78
2019-05-30T07:25:23.778Z,1015.79
2019-05-30T07:26:23.860Z,1015.80
2019-05-30T07:27:23.789Z,1015.75
2019-05-30T07:28:23.814Z,1015.87
2019-05-30T07:29:23.967Z,1015.85
2019-05-30T07:30:23.795Z,1015.89
2019-05-30T07:31:24.018Z,1015.88
2019-05-30T07:33:23.974Z,1015.93
2019-05-30T07:34:23.921Z,1015.91
2019-05-30T07:35:23.955Z,1015.93
2019-05-30T07:36:24.073Z,1015.89
2019-05-30T07:37:24.503Z,1015.98
2019-05-30T07:38:24.296Z,1015.94
2019-05-30T07:39:26.331Z,1015.89
2019-05-30T07:40:24.528Z,1015.92
2019-05-30T07:41:24.548Z,1015.93
2019-05-30T07:42:24.382Z,1015.89
2019-05-30T07:43:25.355Z,1015.93
2019-05-30T07:44:24.506Z,1015.92
2019-05-30T07:46:23.391Z,1016.06
2019-05-30T07:47:23.398Z,1016.10
2019-05-30T07:48:23.413Z,1016.12
2019-05-30T07:49:23.427Z,1016.02
2019-05-30T07:50:23.424Z,1016.10
2019-05-30T07:51:24.485Z,1016.10
2019-05-30T07:52:23.445Z,1016.02
2019-05-30T07:53:23.447Z,1016.08
2019-05-30T07:54:23.474Z,1016.07
2019-05-30T07:55:23.482Z,1016.05
2019-05-30T07:56:23.486Z,1016.19
2019-05-30T07:57:23.499Z,1016.13
2019-05-30T07:58:23.501Z,1016.12
2019-05-30T07:59:23.530Z,1016.03
2019-05-30T08:00:23.525Z,1016.10
2019-05-30T08:01:23.532Z,1016.16
2019-05-30T08:02:23.539Z,1016.21
2019-05-30T08:03:23.555Z,1016.21
2019-05-30T08:04:23.564Z,1016.24
2019-05-30T08:05:25.012Z,1016.23
2019-05-30T08:06:23.599Z,1016.12
2019-05-30T08:07:23.593Z,1016.10
2019-05-30T08:08:23.591Z,1016.02
2019-05-30T08:09:23.623Z,1015.96
2019-05-30T08:10:23.620Z,1016.05
2019-05-30T08:11:23.626Z,1016.02
2019-05-30T08:12:23.642Z,1016.17
2019-05-30T08:13:23.651Z,1016.12
2019-05-30T08:14:23.663Z,1016.06
2019-05-30T08:15:23.673Z,1016.15
2019-05-30T08:16:23.682Z,1016.08
2019-05-30T08:17:23.693Z,1016.13
2019-05-30T08:18:23.718Z,1016.12
2019-05-30T08:19:23.713Z,1016.20
2019-05-30T08:20:23.721Z,1016.19
2019-05-30T08:21:23.731Z,1016.14
2019-05-30T08:23:23.749Z,1016.29
2019-05-30T08:24:23.759Z,1016.37
2019-05-30T08:25:23.784Z,1016.47
2019-05-30T08:26:23.779Z,1016.54
2019-05-30T08:27:23.787Z,1016.49
2019-05-30T08:28:24.498Z,1016.33
2019-05-30T08:29:23.811Z,1016.60
2019-05-30T08:30:23.816Z,1016.67
2019-05-30T08:31:23.831Z,1016.66
2019-05-30T08:32:23.842Z,1016.42
2019-05-30T08:33:23.850Z,1016.36
2019-05-30T08:34:23.860Z,1016.32
2019-05-30T08:35:39.119Z,1016.39
2019-05-30T08:36:23.890Z,1016.44
2019-05-30T08:37:23.916Z,1016.50
2019-05-30T08:38:23.891Z,1016.61
2019-05-30T08:39:23.918Z,1016.40
2019-05-30T08:40:23.928Z,1016.32
2019-05-30T08:41:23.928Z,1016.29
2019-05-30T08:42:23.946Z,1016.31
2019-05-30T08:43:23.962Z,1016.31
2019-05-30T08:44:23.968Z,1016.41
2019-05-30T08:45:23.975Z,1016.38
2019-05-30T08:46:23.980Z,1016.19
2019-05-30T08:47:24.003Z,1016.22
2019-05-30T08:48:24.015Z,1016.28
2019-05-30T08:49:24.013Z,1016.29
2019-05-30T08:50:24.018Z,1016.29
2019-05-30T08:51:24.026Z,1016.23
2019-05-30T08:52:24.036Z,1016.36
2019-05-30T08:53:24.051Z,1016.39
2019-05-30T08:54:24.070Z,1016.31
2019-05-30T08:55:24.071Z,1016.31
2019-05-30T08:56:24.080Z,1016.25
2019-05-30T08:57:24.090Z,1016.28
2019-05-30T08:58:24.099Z,1016.19
2019-05-30T08:59:24.129Z,1016.15
2019-05-30T09:00:24.122Z,1016.21
2019-05-30T09:01:24.126Z,1016.23
2019-05-30T09:02:24.138Z,1016.11
2019-05-30T09:03:24.151Z,1016.07
2019-05-30T09:04:25.015Z,1016.17
2019-05-30T09:05:24.179Z,1016.11
2019-05-30T09:06:24.181Z,1016.15
2019-05-30T09:07:24.191Z,1016.11
2019-05-30T09:08:24.196Z,1016.06
2019-05-30T09:09:24.221Z,1016.03
2019-05-30T09:10:24.223Z,1016.06
2019-05-30T09:11:24.225Z,1016.07
2019-05-30T09:12:24.253Z,1016.08
2019-05-30T09:13:24.254Z,1016.18
2019-05-30T09:14:24.269Z,1015.96
2019-05-30T09:15:24.312Z,1015.98
2019-05-30T09:16:24.315Z,1016.02
2019-05-30T09:17:24.288Z,1016.04
2019-05-30T09:18:24.291Z,1016.06
2019-05-30T09:19:24.312Z,1016.09
2019-05-30T09:20:24.314Z,1016.05
2019-05-30T09:21:24.333Z,1016.07
2019-05-30T09:22:24.353Z,1016.14
2019-05-30T09:23:24.357Z,1016.26
2019-05-30T09:24:24.363Z,1016.31
2019-05-30T09:25:24.364Z,1016.18
2019-05-30T09:26:24.382Z,1016.23
2019-05-30T09:27:24.387Z,1016.20
2019-05-30T09:28:24.393Z,1016.31
2019-05-30T09:29:24.416Z,1016.39
2019-05-30T09:30:24.420Z,1016.56
2019-05-30T09:31:24.427Z,1016.63
2019-05-30T09:32:24.435Z,1016.45
2019-05-30T09:34:24.458Z,1016.32
2019-05-30T09:35:24.482Z,1016.33
2019-05-30T09:36:24.472Z,1016.29
2019-05-30T09:37:24.487Z,1016.17
2019-05-30T09:38:24.494Z,1016.22
2019-05-30T09:39:24.505Z,1016.35
2019-05-30T09:40:24.515Z,1016.27
2019-05-30T09:41:24.528Z,1016.25
2019-05-30T09:42:24.531Z,1016.20
2019-05-30T09:43:24.544Z,1016.27
2019-05-30T09:44:24.554Z,1016.10
2019-05-30T09:45:24.574Z,1016.28
2019-05-30T09:46:24.574Z,1016.31
2019-05-30T09:47:24.586Z,1016.31
2019-05-30T09:48:24.594Z,1016.23
2019-05-30T09:49:24.603Z,1016.26
2019-05-30T09:50:24.614Z,1016.29
2019-05-30T09:51:24.625Z,1016.42
2019-05-30T09:52:24.649Z,1016.41
2019-05-30T09:53:24.651Z,1016.42
2019-05-30T09:54:24.657Z,1016.49
2019-05-30T09:55:24.658Z,1016.45
2019-05-30T09:56:24.686Z,1016.61
2019-05-30T09:57:24.678Z,1016.60
2019-05-30T09:58:24.691Z,1016.56
2019-05-30T09:59:24.690Z,1016.73
2019-05-30T10:00:24.710Z,1016.52
2019-05-30T10:01:24.710Z,1016.53
2019-05-30T10:02:24.736Z,1016.57
2019-05-30T10:03:24.755Z,1016.62
2019-05-30T10:04:24.741Z,1016.49
2019-05-30T10:05:25.089Z,1016.48
2019-05-30T10:06:29.427Z,1016.47
2019-05-30T10:07:24.784Z,1016.57
2019-05-30T10:08:25.537Z,1016.66
2019-05-30T10:09:24.803Z,1016.46
2019-05-30T10:10:24.801Z,1016.43
2019-05-30T10:11:24.840Z,1016.37
2019-05-30T10:12:24.827Z,1016.44
2019-05-30T10:13:24.842Z,1016.44
2019-05-30T10:14:24.845Z,1016.38
2019-05-30T10:15:24.864Z,1016.45
2019-05-30T10:16:24.863Z,1016.49
2019-05-30T10:17:24.874Z,1016.45
2019-05-30T10:18:24.882Z,1016.43
2019-05-30T10:19:24.899Z,1016.40
2019-05-30T10:20:24.908Z,1016.64
2019-05-30T10:21:24.915Z,1016.52
2019-05-30T10:22:24.921Z,1016.45
2019-05-30T10:23:24.942Z,1016.42
2019-05-30T10:24:24.950Z,1016.41
2019-05-30T10:25:24.963Z,1016.29
2019-05-30T10:26:24.959Z,1016.41
2019-05-30T10:27:24.972Z,1016.57
2019-05-30T10:28:24.972Z,1016.58
2019-05-30T10:29:24.989Z,1016.47
2019-05-30T10:30:25.004Z,1016.44
2019-05-30T10:31:25.010Z,1016.51
2019-05-30T10:32:25.020Z,1016.65
2019-05-30T10:33:25.075Z,1016.48
2019-05-30T10:34:25.043Z,1016.55
2019-05-30T10:35:25.049Z,1016.51
2019-05-30T10:36:25.062Z,1016.61
2019-05-30T10:37:25.071Z,1016.54
2019-05-30T10:38:25.084Z,1016.61
2019-05-30T10:39:25.087Z,1016.77
2019-05-30T10:40:25.095Z,1016.86
2019-05-30T10:41:25.121Z,1017.04
2019-05-30T10:42:25.129Z,1016.84
2019-05-30T10:43:25.132Z,1016.83
2019-05-30T10:44:25.135Z,1016.80
2019-05-30T10:45:25.147Z,1016.72
2019-05-30T10:46:25.166Z,1016.92
2019-05-30T10:47:25.181Z,1016.79
2019-05-30T10:48:25.184Z,1016.81
2019-05-30T10:49:34.168Z,1016.75
2019-05-30T10:50:25.191Z,1016.84
2019-05-30T10:51:25.207Z,1017.25
2019-05-30T10:52:25.219Z,1016.93
2019-05-30T10:53:25.232Z,1016.90
2019-05-30T10:54:25.243Z,1017.13
2019-05-30T10:55:25.251Z,1017.07
2019-05-30T10:56:25.281Z,1016.96
2019-05-30T10:57:25.281Z,1017.07
2019-05-30T10:58:25.301Z,1016.85
2019-05-30T10:59:25.310Z,1016.87
2019-05-30T11:00:25.305Z,1016.90
2019-05-30T11:01:25.326Z,1016.97
2019-05-30T11:02:25.360Z,1017.04
2019-05-30T11:03:25.333Z,1016.98
2019-05-30T11:04:25.351Z,1016.83
2019-05-30T11:05:25.356Z,1016.64
2019-05-30T11:06:25.385Z,1016.70
2019-05-30T11:07:25.377Z,1016.75
2019-05-30T11:08:25.393Z,1016.73
2019-05-30T11:09:25.406Z,1016.85
2019-05-30T11:10:25.414Z,1016.86
2019-05-30T11:11:25.426Z,1016.75
2019-05-30T11:12:25.434Z,1016.81
2019-05-30T11:13:25.451Z,1016.81
2019-05-30T11:14:25.450Z,1016.78
2019-05-30T11:15:25.455Z,1016.76
2019-05-30T11:16:25.481Z,1016.82
2019-05-30T11:17:25.489Z,1016.86
2019-05-30T11:18:25.495Z,1016.82
2019-05-30T11:19:25.520Z,1016.81
2019-05-30T11:20:25.514Z,1016.79
2019-05-30T11:21:25.525Z,1016.75
2019-05-30T11:22:25.544Z,1016.75
2019-05-30T11:23:25.552Z,1016.71
2019-05-30T11:24:25.583Z,1016.68
2019-05-30T11:25:25.573Z,1016.68
2019-05-30T11:26:25.587Z,1016.85
2019-05-30T11:27:25.591Z,1016.80
2019-05-30T11:28:25.601Z,1016.81
2019-05-30T11:29:25.609Z,1016.80
2019-05-30T11:30:25.616Z,1016.85
2019-05-30T11:31:25.630Z,1016.85
2019-05-30T11:32:25.646Z,1016.81
2019-05-30T11:33:25.666Z,1016.88
2019-05-30T11:34:25.668Z,1016.83
2019-05-30T11:35:25.666Z,1016.86
2019-05-30T11:36:25.698Z,1016.88
2019-05-30T11:37:25.688Z,1016.88
2019-05-30T11:38:25.706Z,1016.81
2019-05-30T11:39:25.722Z,1016.90
2019-05-30T11:40:25.723Z,1016.84
2019-05-30T11:41:25.735Z,1016.80
2019-05-30T11:42:25.739Z,1016.87
2019-05-30T11:43:25.756Z,1016.74
2019-05-30T11:44:25.770Z,1016.83
2019-05-30T11:45:25.776Z,1016.88
2019-05-30T11:46:25.795Z,1016.83
2019-05-30T11:47:25.790Z,1017.03
2019-05-30T11:48:25.800Z,1016.95
2019-05-30T11:49:25.817Z,1016.87
2019-05-30T11:50:25.821Z,1016.98
2019-05-30T11:51:25.834Z,1016.82
2019-05-30T11:52:25.843Z,1016.83
2019-05-30T11:53:25.848Z,1016.86
2019-05-30T11:54:25.868Z,1016.77
2019-05-30T11:55:25.881Z,1016.74
2019-05-30T11:56:25.887Z,1016.77
2019-05-30T11:57:25.891Z,1016.78
2019-05-30T11:58:25.911Z,1016.75
2019-05-30T11:59:25.909Z,1016.79
2019-05-30T12:00:25.919Z,1016.76
2019-05-30T12:01:25.929Z,1016.76
2019-05-30T12:02:25.948Z,1016.75
2019-05-30T12:03:29.253Z,1016.80
2019-05-30T12:04:25.965Z,1016.85
2019-05-30T12:05:25.964Z,1016.79
2019-05-30T12:06:25.989Z,1016.79
2019-05-30T12:07:35.695Z,1016.80
2019-05-30T12:08:26.006Z,1016.82
2019-05-30T12:10:26.020Z,1016.84
2019-05-30T12:11:26.044Z,1016.83
2019-05-30T12:12:26.045Z,1016.86
2019-05-30T12:13:26.057Z,1016.80
2019-05-30T12:14:26.088Z,1016.87
2019-05-30T12:15:26.118Z,1016.83
2019-05-30T12:17:26.088Z,1016.91
2019-05-30T12:18:26.100Z,1017.00
2019-05-30T12:19:26.121Z,1016.94
2019-05-30T12:20:26.133Z,1016.89
2019-05-30T12:21:29.617Z,1016.92
2019-05-30T12:22:26.138Z,1016.95
2019-05-30T12:23:26.156Z,1016.89